sensor_id;sensor_type;location;lat;lon;timestamp;P1;durP1;ratioP1;P2;durP2;ratioP2
21825;SDS011;11075;47.944;11.776;2024-02-23T00:02:14;0.50;;;0.40;;
21825;SDS011;11075;47.944;11.776;2024-02-23T00:04:41;0.30;;;0.30;;
21825;SDS011;11075;47.944;11.776;2024-02-23T00:07:08;0.47;;;0.30;;
21825;SDS011;11075;47.944;11.776;2024-02-23T00:09:35;0.30;;;0.30;;
21825;SDS011;11075;47.944;11.776;2024-02-23T00:12:02;1.07;;;0.30;;
21825;SDS011;11075;47.944;11.776;2024-02-23T00:14:30;0.10;;;0.10;;
21825;SDS011;11075;47.944;11.776;2024-02-23T00:16:57;0.30;;;0.20;;
21825;SDS011;11075;47.944;11.776;2024-02-23T00:19:25;0.70;;;0.13;;
21825;SDS011;11075;47.944;11.776;2024-02-23T00:21:52;1.93;;;0.17;;
21825;SDS011;11075;47.944;11.776;2024-02-23T00:24:19;0.43;;;0.10;;
21825;SDS011;11075;47.944;11.776;2024-02-23T00:26:48;0.10;;;0.10;;
21825;SDS011;11075;47.944;11.776;2024-02-23T00:29:17;0.10;;;0.10;;
21825;SDS011;11075;47.944;11.776;2024-02-23T00:31:44;0.10;;;0.10;;
21825;SDS011;11075;47.944;11.776;2024-02-23T00:34:14;0.10;;;0.10;;
21825;SDS011;11075;47.944;11.776;2024-02-23T00:36:41;0.00;;;0.00;;
21825;SDS011;11075;47.944;11.776;2024-02-23T00:39:11;0.00;;;0.00;;
21825;SDS011;11075;47.944;11.776;2024-02-23T00:41:38;0.20;;;0.20;;
21825;SDS011;11075;47.944;11.776;2024-02-23T00:44:05;0.10;;;0.10;;
21825;SDS011;11075;47.944;11.776;2024-02-23T00:46:32;0.20;;;0.10;;
21825;SDS011;11075;47.944;11.776;2024-02-23T00:48:59;0.00;;;0.00;;
21825;SDS011;11075;47.944;11.776;2024-02-23T00:51:26;0.47;;;0.10;;
21825;SDS011;11075;47.944;11.776;2024-02-23T00:53:53;0.10;;;0.10;;
21825;SDS011;11075;47.944;11.776;2024-02-23T00:56:20;0.00;;;0.00;;
21825;SDS011;11075;47.944;11.776;2024-02-23T00:58:54;0.10;;;0.10;;
21825;SDS011;11075;47.944;11.776;2024-02-23T01:01:21;0.10;;;0.10;;
21825;SDS011;11075;47.944;11.776;2024-02-23T01:03:48;0.10;;;0.10;;
21825;SDS011;11075;47.944;11.776;2024-02-23T01:06:15;0.10;;;0.10;;
21825;SDS011;11075;47.944;11.776;2024-02-23T01:08:43;0.10;;;0.10;;
21825;SDS011;11075;47.944;11.776;2024-02-23T01:11:11;0.10;;;0.10;;
21825;SDS011;11075;47.944;11.776;2024-02-23T01:13:38;0.10;;;0.10;;
21825;SDS011;11075;47.944;11.776;2024-02-23T01:16:05;0.10;;;0.10;;
21825;SDS011;11075;47.944;11.776;2024-02-23T01:18:32;0.10;;;0.10;;
21825;SDS011;11075;47.944;11.776;2024-02-23T01:20:59;0.10;;;0.10;;
21825;SDS011;11075;47.944;11.776;2024-02-23T01:23:26;0.10;;;0.10;;
21825;SDS011;11075;47.944;11.776;2024-02-23T01:25:53;0.10;;;0.10;;
21825;SDS011;11075;47.944;11.776;2024-02-23T01:28:19;0.10;;;0.10;;
21825;SDS011;11075;47.944;11.776;2024-02-23T01:30:46;1.27;;;0.20;;
21825;SDS011;11075;47.944;11.776;2024-02-23T01:33:13;0.00;;;0.00;;
21825;SDS011;11075;47.944;11.776;2024-02-23T01:35:40;0.00;;;0.00;;
21825;SDS011;11075;47.944;11.776;2024-02-23T01:38:07;0.10;;;0.10;;
21825;SDS011;11075;47.944;11.776;2024-02-23T01:40:34;0.20;;;0.17;;
21825;SDS011;11075;47.944;11.776;2024-02-23T01:43:02;0.20;;;0.20;;
21825;SDS011;11075;47.944;11.776;2024-02-23T01:45:30;0.73;;;0.70;;
21825;SDS011;11075;47.944;11.776;2024-02-23T01:47:58;0.10;;;0.10;;
21825;SDS011;11075;47.944;11.776;2024-02-23T01:50:25;0.10;;;0.10;;
21825;SDS011;11075;47.944;11.776;2024-02-23T01:52:54;1.30;;;0.70;;
21825;SDS011;11075;47.944;11.776;2024-02-23T01:55:23;3.30;;;1.80;;
21825;SDS011;11075;47.944;11.776;2024-02-23T01:57:50;0.10;;;0.10;;
21825;SDS011;11075;47.944;11.776;2024-02-23T02:00:18;0.23;;;0.17;;
21825;SDS011;11075;47.944;11.776;2024-02-23T02:02:52;0.10;;;0.10;;
21825;SDS011;11075;47.944;11.776;2024-02-23T02:05:19;0.00;;;0.00;;
21825;SDS011;11075;47.944;11.776;2024-02-23T02:07:47;0.13;;;0.10;;
21825;SDS011;11075;47.944;11.776;2024-02-23T02:10:17;0.10;;;0.10;;
21825;SDS011;11075;47.944;11.776;2024-02-23T02:12:44;0.53;;;0.10;;
21825;SDS011;11075;47.944;11.776;2024-02-23T02:15:11;0.10;;;0.10;;
21825;SDS011;11075;47.944;11.776;2024-02-23T02:17:37;0.00;;;0.00;;
21825;SDS011;11075;47.944;11.776;2024-02-23T02:20:04;0.97;;;0.10;;
21825;SDS011;11075;47.944;11.776;2024-02-23T02:22:33;0.30;;;0.30;;
21825;SDS011;11075;47.944;11.776;2024-02-23T02:25:00;0.40;;;0.30;;
21825;SDS011;11075;47.944;11.776;2024-02-23T02:27:27;0.20;;;0.10;;
21825;SDS011;11075;47.944;11.776;2024-02-23T02:29:54;0.10;;;0.10;;
21825;SDS011;11075;47.944;11.776;2024-02-23T02:32:21;0.43;;;0.13;;
21825;SDS011;11075;47.944;11.776;2024-02-23T02:34:48;0.10;;;0.10;;
21825;SDS011;11075;47.944;11.776;2024-02-23T02:37:15;0.10;;;0.10;;
21825;SDS011;11075;47.944;11.776;2024-02-23T02:39:42;0.30;;;0.30;;
21825;SDS011;11075;47.944;11.776;2024-02-23T02:42:08;0.10;;;0.10;;
21825;SDS011;11075;47.944;11.776;2024-02-23T02:44:35;0.37;;;0.10;;
21825;SDS011;11075;47.944;11.776;2024-02-23T02:47:02;0.10;;;0.10;;
21825;SDS011;11075;47.944;11.776;2024-02-23T02:49:29;0.23;;;0.10;;
21825;SDS011;11075;47.944;11.776;2024-02-23T02:51:56;0.07;;;0.07;;
21825;SDS011;11075;47.944;11.776;2024-02-23T02:54:23;0.00;;;0.00;;
21825;SDS011;11075;47.944;11.776;2024-02-23T02:56:49;0.10;;;0.10;;
21825;SDS011;11075;47.944;11.776;2024-02-23T02:59:17;0.10;;;0.10;;
21825;SDS011;11075;47.944;11.776;2024-02-23T03:01:45;0.03;;;0.03;;
21825;SDS011;11075;47.944;11.776;2024-02-23T03:04:13;0.10;;;0.10;;
21825;SDS011;11075;47.944;11.776;2024-02-23T03:06:40;0.30;;;0.10;;
21825;SDS011;11075;47.944;11.776;2024-02-23T03:09:07;0.20;;;0.10;;
21825;SDS011;11075;47.944;11.776;2024-02-23T03:11:34;0.00;;;0.00;;
21825;SDS011;11075;47.944;11.776;2024-02-23T03:14:01;0.00;;;0.00;;
21825;SDS011;11075;47.944;11.776;2024-02-23T03:16:28;0.10;;;0.10;;
21825;SDS011;11075;47.944;11.776;2024-02-23T03:18:57;0.10;;;0.10;;
21825;SDS011;11075;47.944;11.776;2024-02-23T03:21:24;0.77;;;0.03;;
21825;SDS011;11075;47.944;11.776;2024-02-23T03:23:50;0.17;;;0.13;;
21825;SDS011;11075;47.944;11.776;2024-02-23T03:26:17;0.30;;;0.10;;
21825;SDS011;11075;47.944;11.776;2024-02-23T03:28:44;0.10;;;0.10;;
21825;SDS011;11075;47.944;11.776;2024-02-23T03:31:11;0.10;;;0.10;;
21825;SDS011;11075;47.944;11.776;2024-02-23T03:33:38;0.20;;;0.20;;
21825;SDS011;11075;47.944;11.776;2024-02-23T03:36:05;0.20;;;0.10;;
21825;SDS011;11075;47.944;11.776;2024-02-23T03:38:32;0.10;;;0.10;;
21825;SDS011;11075;47.944;11.776;2024-02-23T03:41:01;0.10;;;0.10;;
21825;SDS011;11075;47.944;11.776;2024-02-23T03:43:28;0.10;;;0.10;;
21825;SDS011;11075;47.944;11.776;2024-02-23T03:45:59;0.20;;;0.20;;
21825;SDS011;11075;47.944;11.776;2024-02-23T03:48:26;0.00;;;0.00;;
21825;SDS011;11075;47.944;11.776;2024-02-23T03:50:53;1.20;;;0.10;;
21825;SDS011;11075;47.944;11.776;2024-02-23T03:53:20;0.23;;;0.13;;
21825;SDS011;11075;47.944;11.776;2024-02-23T03:55:48;0.20;;;0.20;;
21825;SDS011;11075;47.944;11.776;2024-02-23T03:58:15;0.20;;;0.20;;
21825;SDS011;11075;47.944;11.776;2024-02-23T04:00:43;0.10;;;0.10;;
21825;SDS011;11075;47.944;11.776;2024-02-23T04:03:10;0.60;;;0.30;;
21825;SDS011;11075;47.944;11.776;2024-02-23T04:05:36;0.30;;;0.30;;
21825;SDS011;11075;47.944;11.776;2024-02-23T04:08:04;0.37;;;0.13;;
21825;SDS011;11075;47.944;11.776;2024-02-23T04:10:32;0.20;;;0.10;;
21825;SDS011;11075;47.944;11.776;2024-02-23T04:12:59;1.47;;;0.10;;
21825;SDS011;11075;47.944;11.776;2024-02-23T04:15:27;3.20;;;0.10;;
21825;SDS011;11075;47.944;11.776;2024-02-23T04:17:54;0.10;;;0.10;;
21825;SDS011;11075;47.944;11.776;2024-02-23T04:20:21;0.10;;;0.10;;
21825;SDS011;11075;47.944;11.776;2024-02-23T04:22:48;0.30;;;0.17;;
21825;SDS011;11075;47.944;11.776;2024-02-23T04:25:15;0.00;;;0.00;;
21825;SDS011;11075;47.944;11.776;2024-02-23T04:27:42;0.17;;;0.10;;
21825;SDS011;11075;47.944;11.776;2024-02-23T04:30:10;0.30;;;0.20;;
21825;SDS011;11075;47.944;11.776;2024-02-23T04:32:38;0.70;;;0.10;;
21825;SDS011;11075;47.944;11.776;2024-02-23T04:35:05;0.10;;;0.10;;
21825;SDS011;11075;47.944;11.776;2024-02-23T04:37:32;0.10;;;0.10;;
21825;SDS011;11075;47.944;11.776;2024-02-23T04:40:02;2.00;;;0.10;;
21825;SDS011;11075;47.944;11.776;2024-02-23T04:42:32;0.30;;;0.10;;
21825;SDS011;11075;47.944;11.776;2024-02-23T04:44:59;0.20;;;0.10;;
21825;SDS011;11075;47.944;11.776;2024-02-23T04:47:26;0.10;;;0.10;;
21825;SDS011;11075;47.944;11.776;2024-02-23T04:49:53;0.10;;;0.10;;
21825;SDS011;11075;47.944;11.776;2024-02-23T04:52:19;0.20;;;0.10;;
21825;SDS011;11075;47.944;11.776;2024-02-23T04:54:46;0.30;;;0.20;;
21825;SDS011;11075;47.944;11.776;2024-02-23T04:57:13;0.70;;;0.20;;
21825;SDS011;11075;47.944;11.776;2024-02-23T04:59:40;0.63;;;0.10;;
21825;SDS011;11075;47.944;11.776;2024-02-23T05:02:07;0.20;;;0.20;;
21825;SDS011;11075;47.944;11.776;2024-02-23T05:04:34;0.20;;;0.20;;
21825;SDS011;11075;47.944;11.776;2024-02-23T05:07:01;0.10;;;0.10;;
21825;SDS011;11075;47.944;11.776;2024-02-23T05:09:28;0.10;;;0.10;;
21825;SDS011;11075;47.944;11.776;2024-02-23T05:11:55;0.10;;;0.10;;
21825;SDS011;11075;47.944;11.776;2024-02-23T05:14:22;1.50;;;0.20;;
21825;SDS011;11075;47.944;11.776;2024-02-23T05:16:49;0.50;;;0.10;;
21825;SDS011;11075;47.944;11.776;2024-02-23T05:19:16;0.10;;;0.10;;
21825;SDS011;11075;47.944;11.776;2024-02-23T05:21:43;0.10;;;0.10;;
21825;SDS011;11075;47.944;11.776;2024-02-23T05:24:10;0.57;;;0.20;;
21825;SDS011;11075;47.944;11.776;2024-02-23T05:26:37;0.20;;;0.20;;
21825;SDS011;11075;47.944;11.776;2024-02-23T05:29:05;0.10;;;0.10;;
21825;SDS011;11075;47.944;11.776;2024-02-23T05:31:45;0.97;;;0.10;;
21825;SDS011;11075;47.944;11.776;2024-02-23T05:34:14;0.40;;;0.20;;
21825;SDS011;11075;47.944;11.776;2024-02-23T05:36:41;0.30;;;0.20;;
21825;SDS011;11075;47.944;11.776;2024-02-23T05:39:08;3.07;;;0.10;;
21825;SDS011;11075;47.944;11.776;2024-02-23T05:41:36;0.20;;;0.20;;
21825;SDS011;11075;47.944;11.776;2024-02-23T05:44:03;0.30;;;0.27;;
21825;SDS011;11075;47.944;11.776;2024-02-23T05:46:32;0.10;;;0.10;;
21825;SDS011;11075;47.944;11.776;2024-02-23T05:48:59;0.13;;;0.10;;
21825;SDS011;11075;47.944;11.776;2024-02-23T05:51:28;0.10;;;0.10;;
21825;SDS011;11075;47.944;11.776;2024-02-23T05:53:58;0.20;;;0.10;;
21825;SDS011;11075;47.944;11.776;2024-02-23T05:56:25;0.70;;;0.20;;
21825;SDS011;11075;47.944;11.776;2024-02-23T05:58:52;0.47;;;0.20;;
21825;SDS011;11075;47.944;11.776;2024-02-23T06:01:19;0.57;;;0.20;;
21825;SDS011;11075;47.944;11.776;2024-02-23T06:03:46;0.27;;;0.13;;
21825;SDS011;11075;47.944;11.776;2024-02-23T06:06:13;0.87;;;0.30;;
21825;SDS011;11075;47.944;11.776;2024-02-23T06:08:40;0.30;;;0.20;;
21825;SDS011;11075;47.944;11.776;2024-02-23T06:11:09;1.80;;;0.40;;
21825;SDS011;11075;47.944;11.776;2024-02-23T06:13:36;0.80;;;0.10;;
21825;SDS011;11075;47.944;11.776;2024-02-23T06:16:04;0.90;;;0.23;;
21825;SDS011;11075;47.944;11.776;2024-02-23T06:18:31;0.27;;;0.20;;
21825;SDS011;11075;47.944;11.776;2024-02-23T06:20:58;0.27;;;0.20;;
21825;SDS011;11075;47.944;11.776;2024-02-23T06:23:25;0.30;;;0.13;;
21825;SDS011;11075;47.944;11.776;2024-02-23T06:25:52;0.20;;;0.20;;
21825;SDS011;11075;47.944;11.776;2024-02-23T06:28:19;4.13;;;0.53;;
21825;SDS011;11075;47.944;11.776;2024-02-23T06:30:46;0.10;;;0.10;;
21825;SDS011;11075;47.944;11.776;2024-02-23T06:33:13;0.10;;;0.10;;
21825;SDS011;11075;47.944;11.776;2024-02-23T06:35:40;0.23;;;0.20;;
21825;SDS011;11075;47.944;11.776;2024-02-23T06:38:07;0.87;;;0.30;;
21825;SDS011;11075;47.944;11.776;2024-02-23T06:40:34;3.20;;;0.47;;
21825;SDS011;11075;47.944;11.776;2024-02-23T06:43:17;1.00;;;0.30;;
21825;SDS011;11075;47.944;11.776;2024-02-23T06:45:48;0.23;;;0.20;;
21825;SDS011;11075;47.944;11.776;2024-02-23T06:48:15;0.77;;;0.30;;
21825;SDS011;11075;47.944;11.776;2024-02-23T06:50:42;1.70;;;0.40;;
21825;SDS011;11075;47.944;11.776;2024-02-23T06:53:09;0.33;;;0.20;;
21825;SDS011;11075;47.944;11.776;2024-02-23T06:55:36;0.30;;;0.30;;
21825;SDS011;11075;47.944;11.776;2024-02-23T06:58:03;0.20;;;0.13;;
21825;SDS011;11075;47.944;11.776;2024-02-23T07:00:33;2.53;;;0.23;;
21825;SDS011;11075;47.944;11.776;2024-02-23T07:03:01;0.53;;;0.20;;
21825;SDS011;11075;47.944;11.776;2024-02-23T07:05:30;0.87;;;0.40;;
21825;SDS011;11075;47.944;11.776;2024-02-23T07:07:57;0.50;;;0.30;;
21825;SDS011;11075;47.944;11.776;2024-02-23T07:10:24;1.97;;;0.20;;
21825;SDS011;11075;47.944;11.776;2024-02-23T07:12:52;1.60;;;0.70;;
21825;SDS011;11075;47.944;11.776;2024-02-23T07:15:22;0.43;;;0.30;;
21825;SDS011;11075;47.944;11.776;2024-02-23T07:17:51;0.30;;;0.30;;
21825;SDS011;11075;47.944;11.776;2024-02-23T07:20:18;0.90;;;0.30;;
21825;SDS011;11075;47.944;11.776;2024-02-23T07:22:45;1.30;;;0.30;;
21825;SDS011;11075;47.944;11.776;2024-02-23T07:25:16;1.23;;;0.40;;
21825;SDS011;11075;47.944;11.776;2024-02-23T07:27:49;0.60;;;0.30;;
21825;SDS011;11075;47.944;11.776;2024-02-23T07:30:16;0.30;;;0.30;;
21825;SDS011;11075;47.944;11.776;2024-02-23T07:32:43;1.60;;;0.20;;
21825;SDS011;11075;47.944;11.776;2024-02-23T07:35:14;2.43;;;0.33;;
21825;SDS011;11075;47.944;11.776;2024-02-23T07:37:41;0.30;;;0.30;;
21825;SDS011;11075;47.944;11.776;2024-02-23T07:40:08;2.00;;;0.40;;
21825;SDS011;11075;47.944;11.776;2024-02-23T07:42:35;0.50;;;0.40;;
21825;SDS011;11075;47.944;11.776;2024-02-23T07:45:05;0.37;;;0.30;;
21825;SDS011;11075;47.944;11.776;2024-02-23T07:47:33;0.37;;;0.13;;
21825;SDS011;11075;47.944;11.776;2024-02-23T07:50:00;2.07;;;0.33;;
21825;SDS011;11075;47.944;11.776;2024-02-23T07:52:27;1.20;;;0.30;;
21825;SDS011;11075;47.944;11.776;2024-02-23T07:54:54;1.33;;;0.50;;
21825;SDS011;11075;47.944;11.776;2024-02-23T07:57:21;0.10;;;0.10;;
21825;SDS011;11075;47.944;11.776;2024-02-23T07:59:48;1.17;;;0.30;;
21825;SDS011;11075;47.944;11.776;2024-02-23T08:02:15;1.00;;;0.30;;
21825;SDS011;11075;47.944;11.776;2024-02-23T08:04:42;0.40;;;0.20;;
21825;SDS011;11075;47.944;11.776;2024-02-23T08:07:10;1.83;;;0.30;;
21825;SDS011;11075;47.944;11.776;2024-02-23T08:09:37;0.87;;;0.33;;
21825;SDS011;11075;47.944;11.776;2024-02-23T08:12:04;0.93;;;0.40;;
21825;SDS011;11075;47.944;11.776;2024-02-23T08:14:31;0.90;;;0.43;;
21825;SDS011;11075;47.944;11.776;2024-02-23T08:16:59;1.90;;;0.40;;
21825;SDS011;11075;47.944;11.776;2024-02-23T08:19:26;0.50;;;0.47;;
21825;SDS011;11075;47.944;11.776;2024-02-23T08:21:53;2.43;;;0.40;;
21825;SDS011;11075;47.944;11.776;2024-02-23T08:24:20;2.10;;;0.50;;
21825;SDS011;11075;47.944;11.776;2024-02-23T08:26:47;0.37;;;0.20;;
21825;SDS011;11075;47.944;11.776;2024-02-23T08:29:14;0.30;;;0.23;;
21825;SDS011;11075;47.944;11.776;2024-02-23T08:31:41;0.20;;;0.20;;
21825;SDS011;11075;47.944;11.776;2024-02-23T08:34:08;1.13;;;0.37;;
21825;SDS011;11075;47.944;11.776;2024-02-23T08:36:35;1.17;;;0.33;;
21825;SDS011;11075;47.944;11.776;2024-02-23T08:39:02;1.70;;;0.30;;
21825;SDS011;11075;47.944;11.776;2024-02-23T08:41:29;0.47;;;0.20;;
21825;SDS011;11075;47.944;11.776;2024-02-23T08:43:57;0.53;;;0.30;;
21825;SDS011;11075;47.944;11.776;2024-02-23T08:46:24;5.67;;;0.43;;
21825;SDS011;11075;47.944;11.776;2024-02-23T08:48:51;0.77;;;0.23;;
21825;SDS011;11075;47.944;11.776;2024-02-23T08:51:18;2.10;;;0.50;;
21825;SDS011;11075;47.944;11.776;2024-02-23T08:53:44;4.90;;;0.33;;
21825;SDS011;11075;47.944;11.776;2024-02-23T08:56:12;0.37;;;0.37;;
21825;SDS011;11075;47.944;11.776;2024-02-23T08:58:39;3.00;;;0.43;;
21825;SDS011;11075;47.944;11.776;2024-02-23T09:01:06;1.93;;;0.73;;
21825;SDS011;11075;47.944;11.776;2024-02-23T09:03:33;0.83;;;0.20;;
21825;SDS011;11075;47.944;11.776;2024-02-23T09:05:59;2.83;;;1.13;;
21825;SDS011;11075;47.944;11.776;2024-02-23T09:08:27;0.63;;;0.30;;
21825;SDS011;11075;47.944;11.776;2024-02-23T09:10:53;2.33;;;0.30;;
21825;SDS011;11075;47.944;11.776;2024-02-23T09:13:20;0.47;;;0.30;;
21825;SDS011;11075;47.944;11.776;2024-02-23T09:15:47;1.53;;;0.30;;
21825;SDS011;11075;47.944;11.776;2024-02-23T09:18:14;0.33;;;0.30;;
21825;SDS011;11075;47.944;11.776;2024-02-23T09:20:41;0.20;;;0.20;;
21825;SDS011;11075;47.944;11.776;2024-02-23T09:23:08;1.40;;;0.50;;
21825;SDS011;11075;47.944;11.776;2024-02-23T09:25:38;0.77;;;0.23;;
21825;SDS011;11075;47.944;11.776;2024-02-23T09:28:08;0.30;;;0.30;;
21825;SDS011;11075;47.944;11.776;2024-02-23T09:30:37;4.23;;;0.30;;
21825;SDS011;11075;47.944;11.776;2024-02-23T09:33:04;0.33;;;0.30;;
21825;SDS011;11075;47.944;11.776;2024-02-23T09:35:32;0.27;;;0.27;;
21825;SDS011;11075;47.944;11.776;2024-02-23T09:37:59;0.60;;;0.47;;
21825;SDS011;11075;47.944;11.776;2024-02-23T09:40:26;1.47;;;0.67;;
21825;SDS011;11075;47.944;11.776;2024-02-23T09:42:55;2.07;;;0.57;;
21825;SDS011;11075;47.944;11.776;2024-02-23T09:45:25;0.87;;;0.40;;
21825;SDS011;11075;47.944;11.776;2024-02-23T09:47:53;1.63;;;0.47;;
21825;SDS011;11075;47.944;11.776;2024-02-23T09:50:23;2.07;;;0.40;;
21825;SDS011;11075;47.944;11.776;2024-02-23T09:52:50;0.20;;;0.20;;
21825;SDS011;11075;47.944;11.776;2024-02-23T09:55:18;0.77;;;0.40;;
21825;SDS011;11075;47.944;11.776;2024-02-23T09:57:48;0.30;;;0.30;;
21825;SDS011;11075;47.944;11.776;2024-02-23T10:00:17;1.17;;;0.30;;
21825;SDS011;11075;47.944;11.776;2024-02-23T10:02:44;0.23;;;0.23;;
21825;SDS011;11075;47.944;11.776;2024-02-23T10:05:12;0.20;;;0.20;;
21825;SDS011;11075;47.944;11.776;2024-02-23T10:07:40;0.23;;;0.17;;
21825;SDS011;11075;47.944;11.776;2024-02-23T10:10:08;1.20;;;0.40;;
21825;SDS011;11075;47.944;11.776;2024-02-23T10:12:35;0.40;;;0.40;;
21825;SDS011;11075;47.944;11.776;2024-02-23T10:15:03;0.50;;;0.40;;
21825;SDS011;11075;47.944;11.776;2024-02-23T10:17:31;0.97;;;0.20;;
21825;SDS011;11075;47.944;11.776;2024-02-23T10:20:02;0.20;;;0.20;;
21825;SDS011;11075;47.944;11.776;2024-02-23T10:22:31;0.50;;;0.37;;
21825;SDS011;11075;47.944;11.776;2024-02-23T10:24:58;0.30;;;0.30;;
21825;SDS011;11075;47.944;11.776;2024-02-23T10:27:26;0.60;;;0.37;;
21825;SDS011;11075;47.944;11.776;2024-02-23T10:29:54;0.40;;;0.30;;
21825;SDS011;11075;47.944;11.776;2024-02-23T10:32:21;1.70;;;0.40;;
21825;SDS011;11075;47.944;11.776;2024-02-23T10:34:49;0.60;;;0.30;;
21825;SDS011;11075;47.944;11.776;2024-02-23T10:37:19;0.40;;;0.30;;
21825;SDS011;11075;47.944;11.776;2024-02-23T10:39:49;0.30;;;0.30;;
21825;SDS011;11075;47.944;11.776;2024-02-23T10:42:23;1.23;;;0.30;;
21825;SDS011;11075;47.944;11.776;2024-02-23T10:44:56;0.40;;;0.40;;
21825;SDS011;11075;47.944;11.776;2024-02-23T10:47:28;1.67;;;0.50;;
21825;SDS011;11075;47.944;11.776;2024-02-23T10:49:58;2.37;;;0.57;;
21825;SDS011;11075;47.944;11.776;2024-02-23T10:52:28;0.57;;;0.53;;
21825;SDS011;11075;47.944;11.776;2024-02-23T10:54:55;1.20;;;0.63;;
21825;SDS011;11075;47.944;11.776;2024-02-23T10:57:24;1.13;;;0.60;;
21825;SDS011;11075;47.944;11.776;2024-02-23T10:59:51;0.40;;;0.27;;
21825;SDS011;11075;47.944;11.776;2024-02-23T11:02:18;0.30;;;0.30;;
21825;SDS011;11075;47.944;11.776;2024-02-23T11:04:47;0.53;;;0.27;;
21825;SDS011;11075;47.944;11.776;2024-02-23T11:07:20;0.30;;;0.30;;
21825;SDS011;11075;47.944;11.776;2024-02-23T11:09:54;0.20;;;0.20;;
21825;SDS011;11075;47.944;11.776;2024-02-23T11:12:25;0.30;;;0.30;;
21825;SDS011;11075;47.944;11.776;2024-02-23T11:14:56;1.20;;;0.43;;
21825;SDS011;11075;47.944;11.776;2024-02-23T11:17:31;0.23;;;0.23;;
21825;SDS011;11075;47.944;11.776;2024-02-23T11:20:02;0.40;;;0.40;;
21825;SDS011;11075;47.944;11.776;2024-02-23T11:22:32;2.37;;;0.60;;
21825;SDS011;11075;47.944;11.776;2024-02-23T11:25:06;0.37;;;0.37;;
21825;SDS011;11075;47.944;11.776;2024-02-23T11:27:37;1.07;;;0.40;;
21825;SDS011;11075;47.944;11.776;2024-02-23T11:30:07;0.70;;;0.50;;
21825;SDS011;11075;47.944;11.776;2024-02-23T11:35:05;0.40;;;0.30;;
21825;SDS011;11075;47.944;11.776;2024-02-23T11:37:43;1.47;;;0.30;;
21825;SDS011;11075;47.944;11.776;2024-02-23T11:40:12;0.20;;;0.20;;
21825;SDS011;11075;47.944;11.776;2024-02-23T11:42:43;2.87;;;0.50;;
21825;SDS011;11075;47.944;11.776;2024-02-23T11:45:10;1.17;;;0.63;;
21825;SDS011;11075;47.944;11.776;2024-02-23T11:47:37;1.07;;;0.47;;
21825;SDS011;11075;47.944;11.776;2024-02-23T11:50:08;0.87;;;0.70;;
21825;SDS011;11075;47.944;11.776;2024-02-23T11:52:37;1.17;;;0.53;;
21825;SDS011;11075;47.944;11.776;2024-02-23T11:55:06;2.27;;;0.23;;
21825;SDS011;11075;47.944;11.776;2024-02-23T11:57:34;1.27;;;0.70;;
21825;SDS011;11075;47.944;11.776;2024-02-23T12:00:13;2.50;;;1.87;;
21825;SDS011;11075;47.944;11.776;2024-02-23T12:02:40;1.63;;;1.00;;
21825;SDS011;11075;47.944;11.776;2024-02-23T12:05:07;1.67;;;0.40;;
21825;SDS011;11075;47.944;11.776;2024-02-23T12:07:35;9.70;;;6.03;;
21825;SDS011;11075;47.944;11.776;2024-02-23T12:10:02;4.77;;;2.83;;
21825;SDS011;11075;47.944;11.776;2024-02-23T12:12:30;2.70;;;1.93;;
21825;SDS011;11075;47.944;11.776;2024-02-23T12:14:57;4.63;;;2.07;;
21825;SDS011;11075;47.944;11.776;2024-02-23T12:17:25;3.87;;;2.20;;
21825;SDS011;11075;47.944;11.776;2024-02-23T12:20:02;5.53;;;3.13;;
21825;SDS011;11075;47.944;11.776;2024-02-23T12:22:29;0.93;;;0.20;;
21825;SDS011;11075;47.944;11.776;2024-02-23T12:24:59;2.63;;;1.23;;
21825;SDS011;11075;47.944;11.776;2024-02-23T12:27:26;0.30;;;0.30;;
21825;SDS011;11075;47.944;11.776;2024-02-23T12:29:55;0.97;;;0.57;;
21825;SDS011;11075;47.944;11.776;2024-02-23T12:32:22;2.13;;;0.73;;
21825;SDS011;11075;47.944;11.776;2024-02-23T12:34:49;2.33;;;0.63;;
21825;SDS011;11075;47.944;11.776;2024-02-23T12:37:16;2.27;;;1.27;;
21825;SDS011;11075;47.944;11.776;2024-02-23T12:39:44;1.13;;;0.70;;
21825;SDS011;11075;47.944;11.776;2024-02-23T12:42:11;1.70;;;1.20;;
21825;SDS011;11075;47.944;11.776;2024-02-23T12:44:38;0.30;;;0.30;;
21825;SDS011;11075;47.944;11.776;2024-02-23T12:47:05;0.30;;;0.30;;
21825;SDS011;11075;47.944;11.776;2024-02-23T12:49:32;3.77;;;0.60;;
21825;SDS011;11075;47.944;11.776;2024-02-23T12:51:59;0.47;;;0.20;;
21825;SDS011;11075;47.944;11.776;2024-02-23T12:54:26;0.40;;;0.40;;
21825;SDS011;11075;47.944;11.776;2024-02-23T12:56:53;1.17;;;0.30;;
21825;SDS011;11075;47.944;11.776;2024-02-23T12:59:20;1.43;;;0.60;;
21825;SDS011;11075;47.944;11.776;2024-02-23T13:01:47;3.17;;;1.00;;
21825;SDS011;11075;47.944;11.776;2024-02-23T13:04:17;1.23;;;0.83;;
21825;SDS011;11075;47.944;11.776;2024-02-23T13:06:44;1.10;;;0.77;;
21825;SDS011;11075;47.944;11.776;2024-02-23T13:09:11;2.63;;;1.30;;
21825;SDS011;11075;47.944;11.776;2024-02-23T13:11:39;1.47;;;0.30;;
21825;SDS011;11075;47.944;11.776;2024-02-23T13:14:06;0.20;;;0.20;;
21825;SDS011;11075;47.944;11.776;2024-02-23T13:16:35;0.20;;;0.20;;
21825;SDS011;11075;47.944;11.776;2024-02-23T13:19:02;0.23;;;0.23;;
21825;SDS011;11075;47.944;11.776;2024-02-23T13:21:29;0.30;;;0.30;;
21825;SDS011;11075;47.944;11.776;2024-02-23T13:23:58;0.30;;;0.30;;
21825;SDS011;11075;47.944;11.776;2024-02-23T13:26:25;0.80;;;0.30;;
21825;SDS011;11075;47.944;11.776;2024-02-23T13:28:52;0.83;;;0.83;;
21825;SDS011;11075;47.944;11.776;2024-02-23T13:31:19;2.63;;;0.30;;
21825;SDS011;11075;47.944;11.776;2024-02-23T13:33:46;0.87;;;0.57;;
21825;SDS011;11075;47.944;11.776;2024-02-23T13:36:14;0.97;;;0.40;;
21825;SDS011;11075;47.944;11.776;2024-02-23T13:38:40;0.10;;;0.10;;
21825;SDS011;11075;47.944;11.776;2024-02-23T13:41:08;1.27;;;0.93;;
21825;SDS011;11075;47.944;11.776;2024-02-23T13:43:35;3.93;;;1.50;;
21825;SDS011;11075;47.944;11.776;2024-02-23T13:46:02;3.87;;;2.47;;
21825;SDS011;11075;47.944;11.776;2024-02-23T13:48:30;11.97;;;4.30;;
21825;SDS011;11075;47.944;11.776;2024-02-23T13:50:58;13.53;;;6.07;;
21825;SDS011;11075;47.944;11.776;2024-02-23T13:53:29;4.10;;;2.63;;
21825;SDS011;11075;47.944;11.776;2024-02-23T13:55:58;3.53;;;1.40;;
21825;SDS011;11075;47.944;11.776;2024-02-23T13:58:25;1.50;;;1.00;;
21825;SDS011;11075;47.944;11.776;2024-02-23T14:00:54;5.00;;;3.20;;
21825;SDS011;11075;47.944;11.776;2024-02-23T14:03:21;2.87;;;1.77;;
21825;SDS011;11075;47.944;11.776;2024-02-23T14:05:49;2.80;;;1.53;;
21825;SDS011;11075;47.944;11.776;2024-02-23T14:08:16;2.87;;;1.80;;
21825;SDS011;11075;47.944;11.776;2024-02-23T14:10:43;6.40;;;5.07;;
21825;SDS011;11075;47.944;11.776;2024-02-23T14:13:10;2.13;;;1.93;;
21825;SDS011;11075;47.944;11.776;2024-02-23T14:15:37;1.70;;;0.80;;
21825;SDS011;11075;47.944;11.776;2024-02-23T14:18:04;1.13;;;0.83;;
21825;SDS011;11075;47.944;11.776;2024-02-23T14:20:31;1.17;;;0.60;;
21825;SDS011;11075;47.944;11.776;2024-02-23T14:22:58;0.40;;;0.40;;
21825;SDS011;11075;47.944;11.776;2024-02-23T14:25:25;4.33;;;0.77;;
21825;SDS011;11075;47.944;11.776;2024-02-23T14:27:52;0.97;;;0.50;;
21825;SDS011;11075;47.944;11.776;2024-02-23T14:30:19;1.63;;;1.10;;
21825;SDS011;11075;47.944;11.776;2024-02-23T14:32:47;0.67;;;0.60;;
21825;SDS011;11075;47.944;11.776;2024-02-23T14:35:14;2.03;;;0.73;;
21825;SDS011;11075;47.944;11.776;2024-02-23T14:37:41;0.47;;;0.47;;
21825;SDS011;11075;47.944;11.776;2024-02-23T14:40:08;1.13;;;0.60;;